Time;durP1;ratioP1;P1;durP2;ratioP2;P2;SDS_P1;SDS_P2;PMS_P1;PMS_P2;Temp;Humidity;BMP_temperature;BMP_pressure;BME280_temperature;BME280_humidity;BME280_pressure;Samples;Min_cycle;Max_cycle;Signal;HPM_P1;HPM_P2
2021/12/12 00:00:46;;;;;;;14.23;5.90;;;;;;;11.88;100.00;102088.81;5050456;28;20813;-88
2021/12/12 00:03:39;;;;;;;17.57;8.07;;;;;;;11.87;100.00;102078.00;5065244;28;20491;-89
2021/12/12 00:06:37;;;;;;;20.67;9.47;;;;;;;11.79;100.00;102077.97;5083396;28;20495;-87
2021/12/12 00:09:16;;;;;;;17.37;8.93;;;;;;;11.76;100.00;102077.28;5072472;28;20476;-87
2021/12/12 00:11:44;;;;;;;16.00;6.17;;;;;;;11.75;100.00;102083.75;5052957;28;20485;-87
2021/12/12 00:14:18;;;;;;;12.00;4.00;;;;;;;11.71;100.00;102079.69;5020635;28;20438;-87
2021/12/12 00:16:48;;;;;;;30.80;13.20;;;;;;;11.69;100.00;102078.97;5055934;28;20449;-88
2021/12/12 00:19:18;;;;;;;22.83;11.60;;;;;;;11.67;100.00;102081.03;5021109;28;20804;-88
2021/12/12 00:21:47;;;;;;;17.17;8.87;;;;;;;11.62;100.00;102072.44;5037360;28;21040;-88
2021/12/12 00:24:15;;;;;;;16.93;7.03;;;;;;;11.63;100.00;102076.06;5021054;28;20466;-88
2021/12/12 00:26:47;;;;;;;20.53;8.50;;;;;;;11.61;100.00;102069.88;5054060;28;20447;-88
2021/12/12 00:29:15;;;;;;;20.63;7.43;;;;;;;11.59;100.00;102075.53;5053151;28;20510;-88
2021/12/12 00:31:46;;;;;;;16.43;6.67;;;;;;;11.56;100.00;102073.13;5020691;28;20485;-88
2021/12/12 00:34:18;;;;;;;17.70;8.07;;;;;;;11.54;100.00;102069.72;5036367;28;20502;-88
2021/12/12 00:36:46;;;;;;;18.27;6.50;;;;;;;11.51;100.00;102061.84;5053086;28;20438;-88
2021/12/12 00:39:21;;;;;;;19.57;7.27;;;;;;;11.43;100.00;102050.84;5053065;28;20503;-88
2021/12/12 00:42:21;;;;;;;16.40;6.83;;;;;;;11.45;100.00;102065.22;5036945;28;20431;-88
2021/12/12 00:44:58;;;;;;;14.07;6.37;;;;;;;11.41;100.00;102069.31;5037631;28;20442;-87
2021/12/12 00:47:27;;;;;;;19.80;5.77;;;;;;;11.37;100.00;102067.94;5037407;28;20430;-89
2021/12/12 00:50:38;;;;;;;11.03;4.17;;;;;;;11.35;100.00;102053.59;5037834;28;20446;-88
2021/12/12 00:53:07;;;;;;;19.10;5.90;;;;;;;11.33;100.00;102059.22;5035920;28;20501;-88
2021/12/12 00:55:37;;;;;;;19.53;5.90;;;;;;;11.27;100.00;102051.66;5052750;28;20438;-88
2021/12/12 00:58:10;;;;;;;13.10;6.90;;;;;;;11.29;100.00;102059.72;5020738;28;20806;-87
2021/12/12 01:00:43;;;;;;;21.43;7.33;;;;;;;11.28;100.00;102058.84;5052406;28;20457;-87
2021/12/12 01:03:11;;;;;;;17.43;6.90;;;;;;;11.26;100.00;102054.56;5036299;28;20453;-87
2021/12/12 01:05:43;;;;;;;20.40;6.40;;;;;;;11.27;100.00;102045.34;5019766;28;20859;-88
2021/12/12 01:08:15;;;;;;;18.80;7.00;;;;;;;11.25;100.00;102042.75;5036445;28;20435;-87
2021/12/12 01:11:34;;;;;;;17.93;7.03;;;;;;;11.24;100.00;102041.06;5032270;28;20447;-88
2021/12/12 01:14:06;;;;;;;22.00;8.90;;;;;;;11.19;100.00;102032.47;5030667;28;20526;-87
2021/12/12 01:16:50;;;;;;;28.47;9.10;;;;;;;11.18;100.00;102040.84;5015927;28;20464;-87
2021/12/12 01:19:22;;;;;;;15.63;6.37;;;;;;;11.15;100.00;102038.47;5015585;28;20475;-88
2021/12/12 01:21:56;;;;;;;19.70;8.07;;;;;;;11.17;100.00;102050.06;5034932;28;20444;-88
2021/12/12 01:24:30;;;;;;;18.70;7.40;;;;;;;11.14;100.00;102044.97;5016312;28;20451;-88
2021/12/12 01:26:58;;;;;;;14.63;6.77;;;;;;;11.07;100.00;102045.63;5032371;28;20949;-88
2021/12/12 01:29:26;;;;;;;25.33;7.60;;;;;;;11.08;100.00;102036.38;5016013;28;20447;-88
2021/12/12 01:31:55;;;;;;;13.13;6.37;;;;;;;10.99;100.00;102026.41;5016220;28;20435;-88
2021/12/12 01:34:28;;;;;;;15.53;6.87;;;;;;;11.06;100.00;102027.47;5032358;28;20438;-88
2021/12/12 01:39:55;;;;;;;12.80;6.40;;;;;;;11.06;100.00;102032.09;5047541;28;20541;-88
2021/12/12 01:42:32;;;;;;;11.00;4.60;;;;;;;11.00;100.00;102032.75;5035822;28;20446;-87
2021/12/12 01:45:14;;;;;;;9.87;5.00;;;;;;;10.98;100.00;102035.66;5035793;28;20533;-88
2021/12/12 01:47:56;;;;;;;13.57;6.50;;;;;;;10.98;100.00;102032.91;5015638;28;20526;-88
2021/12/12 01:50:43;;;;;;;8.67;5.17;;;;;;;10.95;100.00;102025.06;5031671;28;20546;-88
2021/12/12 01:53:19;;;;;;;11.40;5.47;;;;;;;10.96;100.00;102021.31;5014954;28;21024;-88
2021/12/12 01:55:52;;;;;;;9.97;5.43;;;;;;;10.95;100.00;102016.84;5048166;28;20447;-88
2021/12/12 01:58:24;;;;;;;12.53;4.40;;;;;;;10.92;100.00;102019.91;5015424;28;20540;-87
2021/12/12 02:00:58;;;;;;;10.50;4.10;;;;;;;10.90;100.00;102010.16;5047831;28;20530;-87
2021/12/12 02:03:30;;;;;;;7.27;4.63;;;;;;;10.91;100.00;102020.94;5032510;28;20443;-87
2021/12/12 02:05:59;;;;;;;9.00;4.90;;;;;;;10.85;100.00;102021.59;5020771;28;20439;-87
2021/12/12 02:08:27;;;;;;;7.13;2.63;;;;;;;10.83;100.00;102017.28;5071983;28;20512;-87
2021/12/12 02:11:01;;;;;;;5.00;2.60;;;;;;;10.81;100.00;102009.25;5055345;28;20520;-88
2021/12/12 02:13:30;;;;;;;10.53;2.70;;;;;;;10.81;100.00;102012.00;5068208;28;20484;-87
2021/12/12 02:16:00;;;;;;;6.97;2.77;;;;;;;10.83;100.00;102020.88;5035317;28;20834;-87
2021/12/12 02:18:33;;;;;;;4.60;3.27;;;;;;;10.83;100.00;102023.63;5018881;28;20457;-87
2021/12/12 02:21:19;;;;;;;27.20;10.97;;;;;;;10.79;100.00;102013.16;5044621;28;20496;-87
2021/12/12 02:37:49;;;;;;;52.90;20.20;;;;;;;10.70;100.00;102020.50;5034932;28;20435;-87
2021/12/12 02:40:40;;;;;;;27.43;11.33;;;;;;;10.65;100.00;102028.31;5050994;28;20438;-87
2021/12/12 02:43:10;;;;;;;12.83;6.20;;;;;;;10.64;100.00;102021.13;5031433;28;20980;-87
2021/12/12 02:45:39;;;;;;;6.50;2.97;;;;;;;10.62;100.00;102020.44;5031160;28;20952;-87
2021/12/12 02:48:09;;;;;;;6.97;3.03;;;;;;;10.62;100.00;102023.16;5032555;28;20470;-87
2021/12/12 02:50:40;;;;;;;10.50;3.73;;;;;;;10.57;100.00;102026.41;5015528;28;20443;-87
2021/12/12 02:53:14;;;;;;;8.83;4.00;;;;;;;10.56;100.00;102023.84;5033605;28;20472;-87
2021/12/12 02:55:47;;;;;;;11.50;3.60;;;;;;;10.56;100.00;102023.84;5016684;28;20534;-87
2021/12/12 02:58:16;;;;;;;7.13;3.27;;;;;;;10.54;100.00;102026.75;5033097;28;20426;-87
2021/12/12 03:01:05;;;;;;;8.83;3.57;;;;;;;10.46;100.00;102018.47;5038700;28;20443;-87
2021/12/12 03:03:36;;;;;;;7.53;3.87;;;;;;;10.49;100.00;102031.81;5043458;28;20452;-87
2021/12/12 03:06:06;;;;;;;6.90;3.53;;;;;;;10.48;100.00;102040.19;5037529;28;20431;-87
2021/12/12 03:08:34;;;;;;;9.97;3.90;;;;;;;10.48;100.00;102037.44;5033469;28;20868;-87
2021/12/12 03:11:02;;;;;;;7.73;3.77;;;;;;;10.39;100.00;102023.72;5036993;28;20435;-87
2021/12/12 03:13:30;;;;;;;8.70;2.50;;;;;;;10.41;100.00;102028.16;5020473;28;20874;-87
2021/12/12 03:15:57;;;;;;;3.00;1.63;;;;;;;10.36;100.00;102040.47;5036774;28;20450;-88
2021/12/12 03:18:39;;;;;;;8.30;1.50;;;;;;;10.32;100.00;102030.00;5020941;28;20919;-87
2021/12/12 03:21:29;;;;;;;3.83;1.30;;;;;;;10.24;100.00;102030.78;5053537;28;20464;-87
2021/12/12 03:24:03;;;;;;;3.63;1.63;;;;;;;10.25;100.00;102037.97;5038616;28;20478;-88
2021/12/12 03:26:31;;;;;;;2.73;1.60;;;;;;;10.26;100.00;102038.84;5021232;28;20823;-87
2021/12/12 03:28:59;;;;;;;2.70;1.20;;;;;;;10.22;100.00;102026.50;5020653;28;20438;-87
2021/12/12 03:31:32;;;;;;;2.27;1.10;;;;;;;10.22;100.00;102029.25;5036630;28;20430;-87
2021/12/12 03:34:07;;;;;;;3.13;1.57;;;;;;;10.23;100.00;102034.53;5052930;28;21005;-86
2021/12/12 03:36:35;;;;;;;2.07;1.20;;;;;;;10.17;100.00;102026.97;5039022;28;20850;-87
2021/12/12 03:39:09;;;;;;;4.87;2.27;;;;;;;10.24;100.00;102029.94;5037558;28;20445;-87
2021/12/12 03:41:40;;;;;;;7.67;2.93;;;;;;;10.20;100.00;102023.09;5037593;28;20439;-87
2021/12/12 03:44:12;;;;;;;5.97;3.57;;;;;;;10.26;100.00;102022.44;5021259;28;20445;-87
2021/12/12 03:46:41;;;;;;;5.53;2.83;;;;;;;10.21;100.00;102025.66;5053796;28;20446;-86
2021/12/12 03:49:10;;;;;;;8.00;2.20;;;;;;;10.19;100.00;102010.47;5020034;28;20442;-88
2021/12/12 03:51:41;;;;;;;2.10;1.17;;;;;;;10.17;100.00;102013.31;5036728;28;20446;-87
2021/12/12 03:54:11;;;;;;;3.63;1.00;;;;;;;10.20;100.00;102021.19;5037633;28;20566;-87
2021/12/12 03:56:40;;;;;;;3.37;1.20;;;;;;;10.15;100.00;102009.88;5053539;28;20496;-89
2021/12/12 03:59:08;;;;;;;3.60;1.90;;;;;;;10.16;100.00;102006.13;5020244;28;20495;-89
2021/12/12 04:01:44;;;;;;;2.47;1.53;;;;;;;10.17;100.00;102002.38;5021466;28;20443;-88
2021/12/12 04:04:18;;;;;;;4.40;1.90;;;;;;;10.15;100.00;102004.41;5037396;28;20437;-89
2021/12/12 04:06:46;;;;;;;6.03;1.97;;;;;;;10.13;100.00;102000.13;5037745;28;20449;-88
2021/12/12 04:09:15;;;;;;;4.97;2.63;;;;;;;10.11;100.00;101996.69;5037113;28;20439;-88
2021/12/12 04:11:51;;;;;;;5.20;2.07;;;;;;;10.10;100.00;102006.78;5020574;28;20438;-88
2021/12/12 04:14:19;;;;;;;6.50;2.20;;;;;;;10.09;100.00;101994.13;5019846;28;20934;-88
2021/12/12 04:16:51;;;;;;;4.70;1.90;;;;;;;10.08;100.00;101989.69;5053700;28;20446;-88
2021/12/12 04:19:21;;;;;;;7.20;1.67;;;;;;;10.05;100.00;101987.25;5021685;28;20469;-88
2021/12/12 04:21:50;;;;;;;4.10;2.40;;;;;;;10.07;100.00;101998.88;5053448;28;20439;-88
2021/12/12 04:24:43;;;;;;;14.13;5.50;;;;;;;10.06;100.00;101994.44;5019083;28;20501;-89
2021/12/12 04:27:13;;;;;;;5.97;4.00;;;;;;;9.99;100.00;101983.31;5053008;28;20488;-88
2021/12/12 04:29:43;;;;;;;5.63;3.00;;;;;;;9.99;100.00;101993.38;5036564;28;20477;-89
2021/12/12 04:32:17;;;;;;;9.57;4.00;;;;;;;9.94;100.00;101984.81;5037130;28;20451;-88
2021/12/12 04:34:51;;;;;;;4.20;2.20;;;;;;;9.94;100.00;101991.13;5024212;28;21000;-88
2021/12/12 04:37:19;;;;;;;2.63;1.70;;;;;;;9.94;100.00;101985.66;5020533;28;20439;-88
2021/12/12 04:39:50;;;;;;;3.10;1.37;;;;;;;9.82;100.00;101966.94;5020440;28;20445;-89
2021/12/12 04:42:21;;;;;;;7.43;2.43;;;;;;;9.87;100.00;101978.25;5020825;28;20813;-87
2021/12/12 04:44:52;;;;;;;4.30;1.57;;;;;;;9.85;100.00;101964.75;5036662;28;20438;-88
2021/12/12 04:51:03;;;;;;;6.13;3.70;;;;;;;9.90;100.00;101973.34;5052467;28;20473;-88
2021/12/12 04:53:54;;;;;;;5.47;2.73;;;;;;;9.87;100.00;101964.59;5052187;28;20493;-88
2021/12/12 04:56:24;;;;;;;4.67;2.57;;;;;;;9.89;100.00;101965.31;5037055;28;20443;-88
2021/12/12 04:59:15;;;;;;;5.20;2.40;;;;;;;9.87;100.00;101968.19;5035690;28;20431;-89
2021/12/12 05:01:56;;;;;;;15.63;1.97;;;;;;;9.83;100.00;101971.38;5045229;28;20450;-89
2021/12/12 05:04:40;;;;;;;3.33;1.73;;;;;;;9.82;100.00;101965.06;5036624;28;20441;-88
2021/12/12 05:07:22;;;;;;;3.63;1.70;;;;;;;9.83;100.00;101955.00;5021442;28;20490;-88
2021/12/12 05:10:07;;;;;;;2.13;1.10;;;;;;;9.79;100.00;101959.09;5052572;28;20438;-88
2021/12/12 05:12:44;;;;;;;3.93;1.60;;;;;;;9.70;100.00;101959.03;5052361;28;20806;-89
2021/12/12 05:15:20;;;;;;;3.80;1.70;;;;;;;9.73;100.00;101963.31;5036992;28;20442;-89
2021/12/12 05:17:50;;;;;;;4.83;1.90;;;;;;;9.72;100.00;101956.13;5019898;28;20434;-89
2021/12/12 05:20:31;;;;;;;2.83;1.70;;;;;;;9.72;100.00;101958.88;5019499;28;20853;-88
2021/12/12 05:23:03;;;;;;;4.37;1.57;;;;;;;9.70;100.00;101950.81;5035768;28;20438;-88
2021/12/12 05:25:36;;;;;;;4.50;2.20;;;;;;;9.72;100.00;101960.72;5052638;28;20504;-88
2021/12/12 05:28:04;;;;;;;2.23;1.80;;;;;;;9.68;100.00;101958.31;5052480;28;20447;-88
2021/12/12 05:30:33;;;;;;;6.53;2.53;;;;;;;9.66;100.00;101960.34;5035449;28;20512;-89
2021/12/12 05:33:02;;;;;;;5.50;1.47;;;;;;;9.62;100.00;101958.94;5019151;28;20439;-88
2021/12/12 05:35:32;;;;;;;4.50;1.80;;;;;;;9.64;100.00;101966.97;5036151;28;20468;-89
2021/12/12 05:38:04;;;;;;;3.53;1.97;;;;;;;9.61;100.00;101964.59;5020425;28;20439;-89
2021/12/12 05:40:33;;;;;;;3.23;1.83;;;;;;;9.57;100.00;101960.44;5019106;28;20434;-89
2021/12/12 05:43:04;;;;;;;3.03;1.43;;;;;;;9.54;100.00;101961.63;5019547;28;21010;-88
2021/12/12 05:45:32;;;;;;;4.40;2.03;;;;;;;9.53;100.00;101968.09;5052242;28;20447;-88
2021/12/12 05:48:20;;;;;;;2.80;1.20;;;;;;;9.55;100.00;101963.34;5036066;28;20438;-88
2021/12/12 05:51:00;;;;;;;2.03;1.50;;;;;;;9.50;100.00;101960.22;5035746;28;20438;-88
2021/12/12 05:53:28;;;;;;;5.87;1.00;;;;;;;9.53;100.00;101973.53;5019230;28;21059;-88
2021/12/12 05:55:56;;;;;;;5.23;1.17;;;;;;;9.49;100.00;101972.13;5019448;28;20446;-87
2021/12/12 05:58:24;;;;;;;1.80;1.10;;;;;;;9.46;100.00;101969.72;5035254;28;20779;-88
2021/12/12 06:00:57;;;;;;;4.87;1.63;;;;;;;9.39;100.00;101968.66;5018964;28;20443;-88
2021/12/12 06:03:28;;;;;;;3.10;2.17;;;;;;;9.35;100.00;101967.25;5018709;28;20442;-88
2021/12/12 06:05:58;;;;;;;7.87;1.90;;;;;;;9.35;100.00;101975.44;5015090;28;20527;-88
2021/12/12 06:08:26;;;;;;;4.03;1.80;;;;;;;9.37;100.00;101976.13;5031810;28;20439;-88
2021/12/12 06:10:54;;;;;;;4.67;2.20;;;;;;;9.35;100.00;101979.00;5015674;28;20443;-88
2021/12/12 06:13:22;;;;;;;6.20;1.90;;;;;;;9.31;100.00;101984.91;5051639;28;20953;-88
2021/12/12 06:15:53;;;;;;;2.50;1.47;;;;;;;9.36;100.00;101990.78;5018877;28;20817;-88
2021/12/12 06:18:24;;;;;;;5.10;1.77;;;;;;;9.31;100.00;101974.00;5019808;28;20949;-88
2021/12/12 06:20:53;;;;;;;4.40;2.00;;;;;;;9.35;100.00;101983.59;5036073;28;20426;-88
2021/12/12 06:23:20;;;;;;;2.40;1.47;;;;;;;9.33;100.00;102000.13;5034888;28;20442;-88
2021/12/12 06:25:50;;;;;;;4.43;1.20;;;;;;;9.34;100.00;102003.72;5018802;28;20431;-88
2021/12/12 06:28:25;;;;;;;1.77;1.13;;;;;;;9.31;100.00;101993.09;5035021;28;20443;-88
2021/12/12 06:30:53;;;;;;;2.57;1.20;;;;;;;9.26;100.00;101985.38;5035304;28;20820;-88
2021/12/12 06:33:21;;;;;;;2.60;0.93;;;;;;;9.22;100.00;101991.31;5021502;28;20480;-88
2021/12/12 06:36:38;;;;;;;2.17;1.27;;;;;;;9.26;100.00;101996.28;5023122;28;20804;-88
2021/12/12 06:39:10;;;;;;;2.13;1.33;;;;;;;9.25;100.00;102000.03;5055773;28;20450;-88
2021/12/12 06:41:38;;;;;;;4.17;1.80;;;;;;;9.22;100.00;101996.78;5022970;28;20446;-89
2021/12/12 06:44:08;;;;;;;4.10;1.20;;;;;;;9.16;100.00;101989.19;5054383;28;20998;-89
2021/12/12 06:46:37;;;;;;;2.67;0.83;;;;;;;9.20;100.00;102002.38;5068285;28;20549;-88
2021/12/12 06:49:06;;;;;;;4.60;1.03;;;;;;;9.18;100.00;101992.63;5054280;28;20443;-89
2021/12/12 06:51:36;;;;;;;3.07;1.40;;;;;;;9.22;100.00;102007.69;5022156;28;20496;-88
2021/12/12 06:54:04;;;;;;;3.33;1.20;;;;;;;9.17;100.00;102005.41;5022019;28;20486;-88
2021/12/12 06:56:32;;;;;;;2.50;1.33;;;;;;;9.20;100.00;102009.72;5022665;28;20435;-89
2021/12/12 06:59:01;;;;;;;2.37;1.17;;;;;;;9.20;100.00;102017.91;5021899;28;20481;-89
2021/12/12 07:01:31;;;;;;;5.37;1.40;;;;;;;9.14;100.00;102007.59;5038517;28;20445;-88
2021/12/12 07:03:59;;;;;;;1.70;1.03;;;;;;;9.15;100.00;102020.22;5038500;28;20443;-88
2021/12/12 07:06:29;;;;;;;6.97;1.50;;;;;;;9.15;100.00;102022.94;5038385;28;20496;-88
2021/12/12 07:08:58;;;;;;;3.77;1.60;;;;;;;9.14;100.00;102023.94;5025261;28;20438;-89
2021/12/12 07:11:27;;;;;;;3.27;1.87;;;;;;;9.08;100.00;102016.38;5020365;28;20941;-89
2021/12/12 07:13:55;;;;;;;5.13;1.80;;;;;;;9.08;100.00;102024.56;5020436;28;20524;-89
2021/12/12 07:16:23;;;;;;;7.43;3.57;;;;;;;9.04;100.00;102034.06;5020380;28;20961;-89
2021/12/12 07:18:54;;;;;;;12.97;6.00;;;;;;;9.00;100.00;102023.47;5052777;28;20451;-89
2021/12/12 07:21:22;;;;;;;24.33;11.80;;;;;;;8.97;100.00;102018.31;5036166;28;20944;-88
2021/12/12 07:23:51;;;;;;;8.23;3.23;;;;;;;8.90;100.00;102017.19;5036560;28;20450;-88
2021/12/12 07:26:21;;;;;;;3.73;2.07;;;;;;;8.97;100.00;102039.25;5036469;28;20461;-89
2021/12/12 07:28:51;;;;;;;2.83;1.50;;;;;;;8.91;100.00;102042.59;5020854;28;20450;-88
2021/12/12 07:31:24;;;;;;;3.43;1.10;;;;;;;8.92;100.00;102039.72;5036600;28;20446;-88
2021/12/12 07:33:56;;;;;;;8.27;2.67;;;;;;;8.98;100.00;102040.97;5036188;28;20466;-88
2021/12/12 07:36:26;;;;;;;4.60;1.80;;;;;;;8.87;100.00;102041.16;5032965;28;20451;-89
2021/12/12 07:38:58;;;;;;;4.77;2.00;;;;;;;8.93;100.00;102046.88;5053970;28;20488;-89
2021/12/12 07:41:28;;;;;;;3.67;2.33;;;;;;;8.83;100.00;102035.19;5036843;28;20946;-89
2021/12/12 07:43:56;;;;;;;4.93;2.60;;;;;;;8.90;100.00;102052.63;5036085;28;20550;-90
2021/12/12 07:46:25;;;;;;;2.50;1.53;;;;;;;8.91;100.00;102051.63;5035897;28;20530;-89
2021/12/12 07:48:53;;;;;;;2.00;1.13;;;;;;;8.90;100.00;102058.09;5036230;28;20441;-88
2021/12/12 07:51:23;;;;;;;6.80;1.33;;;;;;;8.89;100.00;102058.22;5032108;28;20544;-89
2021/12/12 07:53:53;;;;;;;3.07;1.30;;;;;;;8.87;100.00;102049.34;5036442;28;20502;-89
2021/12/12 07:56:22;;;;;;;2.53;1.40;;;;;;;8.89;100.00;102061.81;5019838;28;20524;-89
2021/12/12 07:58:50;;;;;;;4.13;1.27;;;;;;;8.93;100.00;102049.63;5036589;28;20434;-89
2021/12/12 08:01:17;;;;;;;3.87;1.27;;;;;;;8.95;100.00;102058.50;5019851;28;20430;-90
2021/12/12 08:03:45;;;;;;;1.60;0.90;;;;;;;8.96;100.00;102052.03;5015583;28;20454;-89
2021/12/12 08:06:15;;;;;;;2.63;1.10;;;;;;;8.97;100.00;102055.63;5019884;28;20443;-90
2021/12/12 08:08:43;;;;;;;1.57;0.97;;;;;;;9.00;100.00;102060.78;5036445;28;20481;-90
2021/12/12 08:11:16;;;;;;;2.90;1.00;;;;;;;9.08;100.00;102073.63;5035643;28;20442;-90
2021/12/12 08:13:51;;;;;;;3.10;1.30;;;;;;;9.11;100.00;102071.47;5035696;28;20435;-91
2021/12/12 08:16:20;;;;;;;4.43;1.47;;;;;;;9.13;100.00;102065.88;5037872;28;20442;-89
2021/12/12 08:18:51;;;;;;;5.20;1.70;;;;;;;9.15;100.00;102075.63;5036852;28;20443;-90
2021/12/12 08:21:19;;;;;;;3.70;1.80;;;;;;;9.21;100.00;102074.16;5052638;28;20469;-90
2021/12/12 08:24:24;;;;;;;6.43;1.73;;;;;;;9.26;100.00;102077.28;5020008;28;20986;-90
2021/12/12 08:30:48;;;;;;;7.30;2.27;;;;;;;9.41;100.00;102083.94;5052330;28;20411;-90
2021/12/12 08:33:16;;;;;;;6.20;2.30;;;;;;;9.35;100.00;102071.78;5009303;28;20478;-90
2021/12/12 08:35:44;;;;;;;6.43;2.20;;;;;;;9.52;100.00;102094.63;4992781;28;20482;-89
2021/12/12 08:41:59;;;;;;;6.87;4.10;;;;;;;9.72;100.00;102084.44;5052192;28;20460;-90
2021/12/12 08:44:29;;;;;;;6.57;3.33;;;;;;;9.88;100.00;102090.06;5037915;28;20425;-89
2021/12/12 08:47:00;;;;;;;7.50;3.53;;;;;;;10.01;100.00;102092.38;5032692;28;20929;-87
2021/12/12 08:49:30;;;;;;;5.43;4.17;;;;;;;10.13;100.00;102106.66;5003985;28;20845;-88
2021/12/12 08:52:15;;;;;;;8.70;4.10;;;;;;;10.18;100.00;102102.47;4983791;28;20460;-88
2021/12/12 08:54:46;;;;;;;6.23;4.63;;;;;;;10.28;100.00;102105.13;5026743;28;20477;-89
2021/12/12 08:57:31;;;;;;;7.87;4.10;;;;;;;10.36;100.00;102095.13;4999237;28;20439;-88
2021/12/12 09:00:21;;;;;;;13.90;5.10;;;;;;;10.51;100.00;102108.19;5027384;28;20513;-88
2021/12/12 09:02:54;;;;;;;10.03;5.77;;;;;;;10.63;100.00;102106.91;5036711;28;20446;-88
2021/12/12 09:05:26;;;;;;;9.20;5.20;;;;;;;10.76;100.00;102121.03;5036053;28;20780;-88
2021/12/12 09:08:30;;;;;;;7.50;4.43;;;;;;;10.90;100.00;102120.41;5038680;28;20461;-91
2021/12/12 09:11:24;;;;;;;11.40;4.97;;;;;;;11.03;100.00;102120.81;5021518;28;20441;-93
2021/12/12 09:14:31;;;;;;;8.57;4.30;;;;;;;11.18;100.00;102122.94;5053143;28;20508;-87
2021/12/12 09:17:33;;;;;;;8.80;4.80;;;;;;;11.22;100.00;102103.28;5051728;28;20779;-86
2021/12/12 09:20:11;;;;;;;19.40;5.87;;;;;;;11.43;100.00;102119.28;5053074;28;20909;-87
2021/12/12 09:22:56;;;;;;;13.97;6.10;;;;;;;11.57;100.00;102132.34;5035925;28;20438;-89
2021/12/12 09:26:09;;;;;;;12.23;5.83;;;;;;;11.76;100.00;102131.22;5052678;28;20453;-94
2021/12/12 09:28:42;;;;;;;9.80;5.70;;;;;;;11.92;100.00;102130.41;5052112;28;20442;-88
2021/12/12 09:31:39;;;;;;;11.03;4.27;;;;;;;12.08;100.00;102127.69;5030823;28;20460;-88
2021/12/12 09:34:18;;;;;;;8.03;3.57;;;;;;;12.28;100.00;102133.72;5048981;28;20510;-88
2021/12/12 09:36:58;;;;;;;9.03;4.23;;;;;;;12.48;100.00;102123.25;5048367;28;20439;-88
2021/12/12 09:39:37;;;;;;;8.20;4.60;;;;;;;12.72;100.00;102120.44;5050253;28;20435;-86
2021/12/12 09:42:13;;;;;;;7.03;3.47;;;;;;;13.02;100.00;102127.09;5054926;28;20442;-86
2021/12/12 09:45:03;;;;;;;7.43;5.13;;;;;;;13.32;100.00;102128.19;5052292;28;20445;-87
2021/12/12 09:48:27;;;;;;;7.40;3.47;;;;;;;13.57;100.00;102124.31;5039700;28;20446;-88
2021/12/12 09:51:33;;;;;;;4.90;2.03;;;;;;;13.90;100.00;102124.97;5057492;28;20517;-87
2021/12/12 09:54:46;;;;;;;4.40;2.40;;;;;;;14.17;100.00;102134.59;5083764;28;20470;-87
2021/12/12 09:57:37;;;;;;;3.80;2.63;;;;;;;14.42;100.00;102127.91;5050297;28;20438;-88
2021/12/12 10:00:20;;;;;;;5.07;1.60;;;;;;;14.67;99.23;102124.88;5035461;28;20439;-86
2021/12/12 10:03:19;;;;;;;2.67;1.50;;;;;;;14.88;97.50;102136.03;5050437;28;20510;-87
2021/12/12 10:06:13;;;;;;;2.10;1.50;;;;;;;15.07;95.65;102134.63;5051369;28;20439;-87
2021/12/12 10:08:44;;;;;;;2.80;1.67;;;;;;;15.21;94.29;102137.38;5054200;28;20434;-86
2021/12/12 10:11:25;;;;;;;2.43;1.60;;;;;;;15.33;91.76;102145.19;5054727;28;20445;-86
2021/12/12 10:13:56;;;;;;;2.47;1.57;;;;;;;15.43;91.41;102137.44;5055453;28;20434;-88
2021/12/12 10:16:46;;;;;;;2.57;1.40;;;;;;;15.55;89.10;102133.19;5055408;28;20525;-87
2021/12/12 10:19:32;;;;;;;4.13;1.63;;;;;;;15.76;87.80;102138.78;5054758;28;20807;-87
2021/12/12 10:56:42;;;;;;;4.60;1.80;;;;;;;17.32;76.15;102108.25;5052656;28;20496;-93
2021/12/12 10:59:23;;;;;;;1.60;1.30;;;;;;;17.51;75.91;102113.03;5037995;28;20426;-92
2021/12/12 11:10:01;;;;;;;4.23;2.17;;;;;;;17.92;71.87;102110.22;5056611;28;20429;-90
2021/12/12 11:12:39;;;;;;;5.87;2.87;;;;;;;17.99;72.09;102103.88;5053206;28;20438;-90
2021/12/12 11:15:14;;;;;;;4.60;2.20;;;;;;;18.14;72.55;102105.38;5038770;28;20568;-90
2021/12/12 11:18:09;;;;;;;10.07;3.90;;;;;;;18.18;72.07;102081.75;5037951;28;20537;-90
2021/12/12 11:20:43;;;;;;;10.47;5.60;;;;;;;18.30;70.17;102090.28;5033011;28;20441;-91
2021/12/12 11:26:54;;;;;;;3.83;1.70;;;;;;;18.42;69.13;102083.06;5056488;28;20394;-90
2021/12/12 11:29:38;;;;;;;5.97;2.27;;;;;;;18.49;69.41;102078.34;5055107;28;20508;-90
2021/12/12 11:36:35;;;;;;;5.00;2.13;;;;;;;18.74;68.69;102069.44;5056310;28;20516;-91
2021/12/12 11:43:20;;;;;;;6.13;2.73;;;;;;;19.03;67.50;102063.41;5055215;28;20812;-90
2021/12/12 11:46:14;;;;;;;4.87;2.30;;;;;;;19.10;66.63;102064.22;5055247;28;20517;-92
2021/12/12 11:49:16;;;;;;;5.73;1.60;;;;;;;19.21;67.09;102055.25;5038315;28;20446;-92
2021/12/12 11:55:52;;;;;;;4.97;1.50;;;;;;;19.34;66.79;102043.25;5049503;28;20574;-91
2021/12/12 11:58:47;;;;;;;4.07;1.50;;;;;;;19.39;66.36;102042.59;5042096;28;20460;-92
2021/12/12 12:01:24;;;;;;;4.23;2.10;;;;;;;19.41;65.35;102035.75;5044179;28;20511;-92
2021/12/12 12:04:07;;;;;;;2.67;1.77;;;;;;;19.55;65.85;102036.56;5057730;28;20464;-92
2021/12/12 12:07:08;;;;;;;3.00;1.70;;;;;;;19.57;64.95;102037.19;5041636;28;20454;-90
2021/12/12 12:09:48;;;;;;;3.87;1.40;;;;;;;19.63;64.68;102030.75;5044827;28;20528;-92
2021/12/12 12:16:28;;;;;;;5.90;1.40;;;;;;;19.84;65.78;102022.06;5075535;28;20468;-91
2021/12/12 12:19:26;;;;;;;3.20;1.60;;;;;;;19.93;65.96;102015.19;5042025;28;20868;-92
2021/12/12 12:22:19;;;;;;;2.53;1.10;;;;;;;20.05;66.59;102003.34;5074996;28;20434;-92
2021/12/12 12:25:12;;;;;;;1.60;1.00;;;;;;;20.02;67.01;101997.16;5057892;28;20462;-92
2021/12/12 12:36:17;;;;;;;3.13;1.23;;;;;;;20.25;67.76;101995.69;5075138;28;20480;-92
2021/12/12 12:39:22;;;;;;;7.50;1.40;;;;;;;20.27;67.18;101982.44;5057740;28;20503;-93
2021/12/12 12:42:15;;;;;;;3.90;1.93;;;;;;;20.29;67.74;101985.84;5057370;28;20484;-92
2021/12/12 12:45:36;;;;;;;4.30;1.63;;;;;;;20.38;67.44;101987.28;5057655;28;21033;-92
2021/12/12 12:48:33;;;;;;;4.77;1.23;;;;;;;20.46;66.88;101981.44;5057231;28;20460;-93
2021/12/12 12:55:21;;;;;;;3.00;1.60;;;;;;;20.58;66.58;101967.66;5074730;28;20441;-92
2021/12/12 12:57:49;;;;;;;2.83;1.60;;;;;;;20.57;66.94;101952.91;5057180;28;20477;-92
2021/12/12 13:00:19;;;;;;;2.80;1.20;;;;;;;20.65;66.73;101955.38;5040380;28;20453;-92
2021/12/12 13:03:05;;;;;;;3.23;1.70;;;;;;;20.76;66.35;101958.47;5057261;28;20449;-91
2021/12/12 13:06:00;;;;;;;2.20;1.57;;;;;;;20.80;66.29;101948.56;5073468;28;20982;-90
2021/12/12 13:08:50;;;;;;;1.93;0.87;;;;;;;20.83;66.17;101948.09;5051682;28;20496;-91
2021/12/12 13:11:22;;;;;;;2.33;1.20;;;;;;;20.89;66.49;101936.91;5073668;28;20449;-91
2021/12/12 13:29:25;;;;;;;4.93;1.60;;;;;;;21.20;65.52;101927.53;5074210;28;20389;-91
2021/12/12 13:32:20;;;;;;;5.20;1.27;;;;;;;21.26;65.69;101922.97;5073046;28;20453;-92
2021/12/12 13:35:02;;;;;;;8.33;2.17;;;;;;;21.27;65.80;101924.69;5074498;28;20476;-91
2021/12/12 13:38:07;;;;;;;8.53;3.23;;;;;;;21.30;65.33;101919.50;5056749;28;20453;-90
2021/12/12 13:41:17;;;;;;;3.77;1.23;;;;;;;21.28;65.70;101918.03;5073124;28;20794;-92
2021/12/12 13:43:50;;;;;;;3.00;1.67;;;;;;;21.31;66.05;101915.63;5020972;28;20920;-92
2021/12/12 13:50:34;;;;;;;5.47;2.00;;;;;;;21.38;65.13;101913.56;5073867;28;20415;-90
2021/12/12 13:53:08;;;;;;;3.20;1.77;;;;;;;21.42;65.11;101913.97;5072936;28;20852;-91
2021/12/12 13:59:56;;;;;;;2.20;1.30;;;;;;;21.45;65.64;101904.28;5067614;28;20447;-89
2021/12/12 14:02:24;;;;;;;4.83;1.70;;;;;;;21.47;65.29;101888.22;5040433;28;20825;-89
2021/12/12 14:05:15;;;;;;;4.70;1.53;;;;;;;21.56;65.00;101897.91;5023222;28;20512;-90
2021/12/12 14:08:02;;;;;;;2.30;1.40;;;;;;;21.59;63.96;101892.72;5072709;28;20449;-90
2021/12/12 14:10:32;;;;;;;4.47;1.80;;;;;;;21.56;63.96;101881.19;5040196;28;20520;-91